• Join FlightAware (Why Join?)
  • Login
  • US Flag 
05:18PM EDT


 

Airport Tracker/Info


-or-


 

Live Flight TrackerFlight Track Log ✈ CNS130 ✈ 04-Apr-2014 ✈ KBGR - KPSM

Flight Track Log - Related Links

Times and Time Zones

All times are in EDT time to prevent confusion due to time zone crossing. See the CNS130 flight status page for this flight to view local times or setup timezone preferences in your user account.

Time Position Orientation Groundspeed Altitude Reporting Facility
EDT Latitude Longitude Course Direction KTS MPH feet Rate Location/Type
09:07PM 44.7544 -68.8456 224° Southwest 111 128 5,100  Level Boston Center
09:08PM 44.7256 -68.8858 225° Southwest 130 150 7,200 1,980 Climbing Boston Center
09:09PM 44.6942 -68.9286 224° Southwest 144 166 9,200 1,800 Climbing Boston Center
09:10PM 44.6631 -68.9706 224° Southwest 150 173 11,000 1,320 Climbing Boston Center
09:11PM 44.6300 -69.0144 223° Southwest 158 182 12,000 480 Climbing Boston Center
09:12PM 44.5501 -69.1333 180° South  Level FlightAware Approximate
09:12PM 44.5892 -69.0725 225° Southwest 195 224 12,000  Level Boston Center
09:13PM 44.5444 -69.1328 224° Southwest 217 250 12,000  Level Boston Center
09:14PM 44.4994 -69.1939 224° Southwest 219 252 12,000  Level Boston Center
09:15PM 44.4547 -69.2544 224° Southwest 220 253 12,000  Level Boston Center
09:16PM 44.4078 -69.3156 223° Southwest 227 261 12,000  Level Boston Center
09:17PM 44.3589 -69.3717 219° Southwest 228 262 12,000  Level Boston Center
09:18PM 44.3125 -69.4275 221° Southwest 223 257 12,000  Level Boston Center
09:20PM 44.2642 -69.4822 219° Southwest 221 254 12,000  Level Boston Center
09:21PM 44.2183 -69.5350 220° Southwest 217 250 12,000  Level Boston Center
09:22PM 44.1683 -69.5950 221° Southwest 217 250 12,000  Level Boston Center
09:23PM 44.1217 -69.6486 220° Southwest 218 251 12,000  Level Boston Center
09:24PM 44.0733 -69.7050 220° Southwest 213 245 12,000  Level Boston Center
09:25PM 44.0275 -69.7581 220° Southwest 214 246 12,000  Level Boston Center
09:26PM 43.9819 -69.8089 219° Southwest 212 244 12,000  Level Boston Center
09:27PM 43.9372 -69.8614 220° Southwest 211 243 12,000  Level Boston Center
09:28PM 43.8914 -69.9139 220° Southwest 212 244 12,000  Level Boston Center
09:29PM 43.8422 -69.9692 219° Southwest 211 243 12,000  Level Boston Center
09:30PM 43.7967 -70.0217 220° Southwest 212 244 12,000 -120 Level Boston Center
09:31PM 43.7514 -70.0736 220° Southwest 212 244 11,800 -540 Descending Boston Center
09:32PM 43.7031 -70.1272 219° Southwest 221 254 11,000 -420 Descending Boston Center
09:33PM 43.6569 -70.1803 220° Southwest 218 251 11,000 -540 Level Boston Center
09:34PM 43.6108 -70.2319 219° Southwest 216 249 10,000 -1,020 Descending Boston Center
09:35PM 43.5658 -70.2817 219° Southwest 211 243 9,000 -1,020 Descending Boston Center
09:36PM 43.5228 -70.3303 219° Southwest 205 236 8,000 -1,080 Descending Boston Center
09:37PM 43.4758 -70.3825 219° Southwest 202 232 6,900 -1,020 Descending Boston Center
09:38PM 43.4303 -70.4336 219° Southwest 207 238 5,900 -1,020 Descending Boston Center
09:39PM 43.3817 -70.4883 219° Southwest 221 254 4,900 -960 Descending Boston Center
09:40PM 43.3528 -70.5661 243° Southwest 228 262 4,000 -420 Descending Boston Center
09:41PM 43.3344 -70.6442 252° West 219 252 4,100  Climbing Boston Center
09:42PM 43.3167 -70.7194 252° West 213 245 4,100 -420 Level Boston Center
09:43PM 43.2964 -70.8019 251° West 213 245 3,300 -900 Descending Boston Center
09:44PM 43.2775 -70.8761 251° West 209 241 2,300 -660 Descending Boston Center
09:45PM 43.2447 -70.9289 230° Southwest 183 211 2,000 -120 Descending Boston Center
09:46PM 43.2067 -70.9303 182° South 146 168 2,100  Climbing Boston Center
09:47PM 43.1756 -70.9042 149° Southeast 134 154 2,000 -240 Descending Boston Center
09:48PM 43.1503 -70.8833 149° Southeast 106 122 1,700 -480 Descending Boston Center
09:49PM 43.1269 -70.8633 148° Southeast 103 119 1,100 -600 Descending Boston Center
09:50PM 43.1044 -70.8447 149° Southeast 98 113 600 -480 Descending Boston Center
09:51PM 43.0850 -70.8286 149° Southeast 94 108 200 -420 Descending Boston Center